createdAt,value
2023-03-19T00:02:27.324Z,95505.22
2023-03-19T00:07:28.966Z,95504.88
2023-03-19T00:12:30.485Z,95498.69
2023-03-19T00:17:32.211Z,95499.97
2023-03-19T00:22:33.751Z,95500.00
2023-03-19T00:27:37.358Z,95501.59
2023-03-19T00:32:39.521Z,95497.72
2023-03-19T00:37:41.827Z,95504.72
2023-03-19T00:42:44.793Z,95501.59
2023-03-19T00:47:46.355Z,95507.50
2023-03-19T00:52:48.201Z,95496.94
2023-03-19T00:57:49.765Z,95497.31
2023-03-19T01:02:51.720Z,95490.72
2023-03-19T01:07:53.341Z,95496.19
2023-03-19T01:12:54.954Z,95492.28
2023-03-19T01:17:57.047Z,95491.16
2023-03-19T01:22:58.835Z,95492.72
2023-03-19T01:28:00.459Z,95490.81
2023-03-19T01:33:02.123Z,95496.72
2023-03-19T01:38:22.093Z,95495.94
2023-03-19T01:43:29.557Z,95496.00
2023-03-19T01:48:55.054Z,95491.72
2023-03-19T01:54:00.619Z,95484.34
2023-03-19T01:59:22.064Z,95485.53
2023-03-19T02:04:44.749Z,95492.22
2023-03-19T02:09:46.939Z,95488.72
2023-03-19T02:14:48.785Z,95498.50
2023-03-19T02:20:00.031Z,95497.41
2023-03-19T02:25:24.673Z,95499.81
2023-03-19T02:30:33.062Z,95508.44
2023-03-19T02:35:40.465Z,95511.25
2023-03-19T02:41:01.618Z,95512.09
2023-03-19T02:46:05.797Z,95510.22
2023-03-19T02:51:07.433Z,95507.50
2023-03-19T02:56:08.978Z,95490.34
2023-03-19T03:01:11.024Z,95495.44
2023-03-19T03:06:12.818Z,95506.41
2023-03-19T03:11:15.480Z,95509.16
2023-03-19T03:16:17.373Z,95513.03
2023-03-19T03:21:21.311Z,95508.75
2023-03-19T03:26:23.009Z,95517.72
2023-03-19T03:31:24.598Z,95531.81
2023-03-19T03:36:27.440Z,95541.16
2023-03-19T03:41:28.977Z,95547.81
2023-03-19T03:46:30.703Z,95547.03
2023-03-19T03:51:32.883Z,95547.44
2023-03-19T03:56:34.662Z,95552.50
2023-03-19T04:01:36.577Z,95545.88
2023-03-19T04:06:57.487Z,95549.03
2023-03-19T04:12:15.903Z,95545.94
2023-03-19T04:17:18.173Z,95547.88
2023-03-19T04:22:20.805Z,95547.88
2023-03-19T04:27:22.374Z,95544.38
2023-03-19T04:32:25.043Z,95546.34
2023-03-19T04:37:27.127Z,95545.16
2023-03-19T04:42:28.994Z,95540.88
2023-03-19T04:47:47.304Z,95552.56
2023-03-19T04:52:49.665Z,95546.72
2023-03-19T04:57:51.579Z,95549.06
2023-03-19T05:02:55.875Z,95564.28
2023-03-19T05:07:58.147Z,95566.19
2023-03-19T05:13:00.789Z,95559.19
2023-03-19T05:18:02.469Z,95579.47
2023-03-19T05:23:12.280Z,95581.03
2023-03-19T05:28:37.954Z,95581.44
2023-03-19T05:33:39.861Z,95587.69
2023-03-19T05:38:41.720Z,95597.44
2023-03-19T05:43:48.899Z,95592.75
2023-03-19T05:49:05.921Z,95607.97
2023-03-19T05:54:07.600Z,95604.06
2023-03-19T05:59:11.639Z,95615.00
2023-03-19T06:04:18.013Z,95604.06
2023-03-19T06:09:19.801Z,95617.72
2023-03-19T06:14:28.093Z,95630.59
2023-03-19T06:19:55.410Z,95637.63
2023-03-19T06:24:57.040Z,95645.00
2023-03-19T06:29:58.622Z,95654.78
2023-03-19T06:35:06.559Z,95647.75
2023-03-19T06:40:08.863Z,95656.72
2023-03-19T06:45:10.779Z,95668.81
2023-03-19T06:50:13.124Z,95671.91
2023-03-19T06:55:14.745Z,95683.25
2023-03-19T07:00:18.590Z,95683.25
2023-03-19T07:05:20.232Z,95684.81
2023-03-19T07:10:22.547Z,95684.00
2023-03-19T07:15:24.093Z,95692.59
2023-03-19T07:20:25.883Z,95699.22
2023-03-19T07:25:27.506Z,95708.59
2023-03-19T07:30:29.030Z,95709.38
2023-03-19T07:35:31.342Z,95709.38
2023-03-19T07:40:33.258Z,95716.41
2023-03-19T07:45:34.874Z,95723.06
2023-03-19T07:50:36.526Z,95728.88
2023-03-19T07:55:38.480Z,95733.56
2023-03-19T08:00:40.020Z,95735.50
2023-03-19T08:05:41.955Z,95727.69
2023-03-19T08:10:43.785Z,95729.25
2023-03-19T08:15:45.423Z,95730.00
2023-03-19T08:20:46.993Z,95731.16
2023-03-19T08:25:48.720Z,95732.28
2023-03-19T08:30:50.276Z,95735.00
2023-03-19T08:35:52.234Z,95744.75
2023-03-19T08:41:02.030Z,95749.03
2023-03-19T08:46:05.017Z,95748.19
2023-03-19T08:51:06.550Z,95748.19
2023-03-19T08:56:08.608Z,95739.94
2023-03-19T09:01:12.865Z,95742.28
2023-03-19T09:06:14.971Z,95742.69
2023-03-19T09:11:18.019Z,95744.22
2023-03-19T09:16:19.830Z,95749.69
2023-03-19T09:21:21.541Z,95764.50
2023-03-19T09:26:23.126Z,95770.34
2023-03-19T09:31:24.792Z,95778.53
2023-03-19T09:36:26.628Z,95784.38
2023-03-19T09:41:31.444Z,95780.06
2023-03-19T09:46:44.378Z,95798.00
2023-03-19T09:52:09.713Z,95790.22
2023-03-19T09:57:13.217Z,95794.84
2023-03-19T10:02:22.460Z,95805.75
2023-03-19T10:07:40.505Z,95800.25
2023-03-19T10:12:55.679Z,95806.06
2023-03-19T10:18:05.228Z,95811.09
2023-03-19T10:23:18.923Z,95808.00
2023-03-19T10:28:22.087Z,95813.81
2023-03-19T10:33:26.437Z,95807.16
2023-03-19T10:38:28.182Z,95802.81
2023-03-19T10:43:31.622Z,95814.56
2023-03-19T10:48:34.694Z,95802.88
2023-03-19T10:53:38.128Z,95798.91
2023-03-19T10:58:40.692Z,95799.31
2023-03-19T11:03:42.336Z,95803.59
2023-03-19T11:08:55.872Z,95791.81
2023-03-19T11:13:57.860Z,95794.13
2023-03-19T11:18:59.373Z,95796.03
2023-03-19T11:24:03.448Z,95806.97
2023-03-19T11:29:05.933Z,95794.41
2023-03-19T11:34:33.989Z,95803.75
2023-03-19T11:39:41.476Z,95788.41
2023-03-19T11:45:18.736Z,95797.00
2023-03-19T11:50:27.084Z,95797.78
2023-03-19T11:55:42.179Z,95795.06
2023-03-19T12:00:50.770Z,95771.94
2023-03-19T12:06:28.501Z,95776.16
2023-03-19T12:12:13.841Z,95766.72
2023-03-19T12:17:37.909Z,95770.16
2023-03-19T12:22:57.616Z,95763.44
2023-03-19T12:28:18.061Z,95769.94
2023-03-19T12:33:48.744Z,95753.69
2023-03-19T12:38:56.257Z,95746.78
2023-03-19T12:44:23.240Z,95742.66
2023-03-19T12:49:30.326Z,95750.03
2023-03-19T12:54:38.221Z,95736.81
2023-03-19T12:59:54.626Z,95734.91
2023-03-19T13:05:01.546Z,95722.03
2023-03-19T13:10:09.620Z,95719.09
2023-03-19T13:15:22.086Z,95720.19
2023-03-19T13:20:51.041Z,95724.78
2023-03-19T13:25:57.712Z,95718.03
2023-03-19T13:31:19.283Z,95711.56
2023-03-19T13:36:21.062Z,95705.34
2023-03-19T13:41:39.630Z,95707.47
2023-03-19T13:46:44.921Z,95700.94
2023-03-19T13:51:50.575Z,95696.44
2023-03-19T13:57:18.232Z,95700.88
2023-03-19T14:02:22.978Z,95693.16
2023-03-19T14:07:28.758Z,95691.44
2023-03-19T14:12:34.273Z,95692.50
2023-03-19T14:17:54.689Z,95688.47
2023-03-19T14:23:08.886Z,95682.03
2023-03-19T14:28:11.184Z,95691.06
2023-03-19T14:33:44.388Z,95685.34
2023-03-19T14:39:01.888Z,95678.81
2023-03-19T14:44:15.862Z,95680.78
2023-03-19T14:49:32.647Z,95674.84
2023-03-19T14:54:49.137Z,95677.19
2023-03-19T14:59:51.055Z,95677.94
2023-03-19T15:04:54.911Z,95683.03
2023-03-19T15:10:06.663Z,95679.94
2023-03-19T15:15:32.508Z,95678.03
2023-03-19T15:20:42.482Z,95676.63
2023-03-19T15:25:47.842Z,95680.31
2023-03-19T15:31:05.694Z,95674.97
2023-03-19T15:36:17.774Z,95670.59
2023-03-19T15:41:24.343Z,95667.56
2023-03-19T15:46:38.404Z,95673.25
2023-03-19T15:51:41.232Z,95668.66
2023-03-19T15:56:45.323Z,95669.09
2023-03-19T16:01:50.313Z,95676.09
2023-03-19T16:06:52.365Z,95678.25
2023-03-19T16:11:57.609Z,95670.31
2023-03-19T16:17:09.264Z,95674.03
2023-03-19T16:22:16.949Z,95669.31
2023-03-19T16:27:45.577Z,95677.03
2023-03-19T16:32:58.433Z,95678.16
2023-03-19T16:38:22.910Z,95685.69
2023-03-19T16:43:34.328Z,95699.41
2023-03-19T16:48:39.236Z,95692.78
2023-03-19T16:53:41.152Z,95704.75
2023-03-19T16:58:44.199Z,95696.75
2023-03-19T17:03:49.538Z,95704.97
2023-03-19T17:08:54.953Z,95708.97
2023-03-19T17:14:00.632Z,95711.75
2023-03-19T17:19:04.728Z,95711.06
2023-03-19T17:24:34.307Z,95722.22
2023-03-19T17:29:36.799Z,95736.38
2023-03-19T17:34:40.481Z,95732.78
2023-03-19T17:39:45.768Z,95727.25
2023-03-19T17:44:49.678Z,95734.72
2023-03-19T17:49:52.415Z,95742.59
2023-03-19T17:54:53.957Z,95748.88
2023-03-19T17:59:55.577Z,95753.53
2023-03-19T18:04:57.915Z,95757.72
2023-03-19T18:09:59.399Z,95758.34
2023-03-19T18:15:00.921Z,95772.69
2023-03-19T18:20:07.182Z,95772.47
2023-03-19T18:25:18.447Z,95776.13
2023-03-19T18:30:25.880Z,95766.44
2023-03-19T18:35:37.073Z,95769.25
2023-03-19T18:40:40.927Z,95773.66
2023-03-19T18:45:45.984Z,95777.66
2023-03-19T18:50:48.483Z,95794.16
2023-03-19T18:55:53.715Z,95801.25
2023-03-19T19:00:58.480Z,95797.75
2023-03-19T19:06:02.521Z,95809.22
2023-03-19T19:11:09.335Z,95801.47
2023-03-19T19:16:20.571Z,95809.00
2023-03-19T19:21:22.212Z,95810.63
2023-03-19T19:26:29.696Z,95828.31
2023-03-19T19:31:33.927Z,95821.72
2023-03-19T19:36:40.579Z,95820.97
2023-03-19T19:41:43.771Z,95841.34
2023-03-19T19:46:45.726Z,95839.81
2023-03-19T19:51:49.730Z,95835.53
2023-03-19T19:56:52.233Z,95833.19
2023-03-19T20:01:55.217Z,95856.69
2023-03-19T20:06:59.132Z,95862.31
2023-03-19T20:12:09.671Z,95869.00
2023-03-19T20:17:16.207Z,95867.03
2023-03-19T20:22:20.171Z,95874.88
2023-03-19T20:27:26.380Z,95869.00
2023-03-19T20:32:36.818Z,95863.16
2023-03-19T20:37:39.796Z,95870.56
2023-03-19T20:42:43.294Z,95870.94
2023-03-19T20:47:44.998Z,95878.34
2023-03-19T20:52:49.184Z,95881.47
2023-03-19T20:57:56.614Z,95879.56
2023-03-19T21:03:01.961Z,95879.59
2023-03-19T21:08:17.357Z,95870.59
2023-03-19T21:13:19.388Z,95874.50
2023-03-19T21:18:30.263Z,95871.75
2023-03-19T21:23:38.687Z,95875.28
2023-03-19T21:28:45.427Z,95888.22
2023-03-19T21:33:51.567Z,95875.34
2023-03-19T21:38:53.228Z,95894.09
2023-03-19T21:43:59.609Z,95887.44
2023-03-19T21:49:03.793Z,95890.13
2023-03-19T21:54:05.878Z,95892.88
2023-03-19T21:59:16.601Z,95893.28
2023-03-19T22:04:23.005Z,95895.25
2023-03-19T22:09:29.497Z,95898.03
2023-03-19T22:14:31.085Z,95901.56
2023-03-19T22:19:32.656Z,95900.41
2023-03-19T22:24:38.630Z,95891.41
2023-03-19T22:29:40.798Z,95902.41
2023-03-19T22:34:47.590Z,95896.53
2023-03-19T22:39:49.251Z,95902.41
2023-03-19T22:44:54.563Z,95895.38
2023-03-19T22:49:56.243Z,95903.59
2023-03-19T22:54:57.878Z,95902.03
2023-03-19T22:59:59.477Z,95905.97
2023-03-19T23:05:01.991Z,95896.19
2023-03-19T23:10:15.498Z,95895.78
2023-03-19T23:15:20.921Z,95898.56
2023-03-19T23:20:26.085Z,95902.88
2023-03-19T23:25:33.209Z,95898.97
2023-03-19T23:30:37.171Z,95898.97
2023-03-19T23:35:40.202Z,95896.22
2023-03-19T23:40:46.208Z,95915.00
2023-03-19T23:45:52.587Z,95904.44
2023-03-19T23:50:59.071Z,95897.41
2023-03-19T23:56:07.713Z,95910.72
